Time;durP1;ratioP1;P1;durP2;ratioP2;P2;SDS_P1;SDS_P2;PMS_P1;PMS_P2;Temp;Humidity;BMP_temperature;BMP_pressure;BME280_temperature;BME280_humidity;BME280_pressure;Samples;Min_cycle;Max_cycle;Signal;HPM_P1;HPM_P2
2022/05/16 00:00:27;;;;;;;;;;;25.20;39.80;;;;;;1564580;76;717;-66
2022/05/16 00:02:28;;;;;;;;;;;25.20;39.80;;;;;;1564924;76;781;-67
2022/05/16 00:04:30;;;;;;;;;;;25.20;39.80;;;;;;1565969;76;1726;-68
2022/05/16 00:06:32;;;;;;;;;;;25.20;39.90;;;;;;1564337;74;1151;-68
2022/05/16 00:08:34;;;;;;;;;;;25.30;39.90;;;;;;1563673;76;643;-67
2022/05/16 00:10:36;;;;;;;;;;;25.20;40.10;;;;;;1564711;74;714;-68
2022/05/16 00:12:38;;;;;;;;;;;25.30;40.10;;;;;;1563821;74;1947;-68
2022/05/16 00:14:40;;;;;;;;;;;25.30;40.20;;;;;;1566071;76;690;-68
2022/05/16 00:16:42;;;;;;;;;;;25.30;40.30;;;;;;1565479;74;1135;-66
2022/05/16 00:18:44;;;;;;;;;;;25.40;40.30;;;;;;1564499;76;1620;-67
2022/05/16 00:20:46;;;;;;;;;;;25.30;40.20;;;;;;1564385;76;676;-66
2022/05/16 00:22:48;;;;;;;;;;;25.30;40.10;;;;;;1565168;76;661;-67
2022/05/16 00:24:50;;;;;;;;;;;25.30;40.20;;;;;;1566006;74;1147;-67
2022/05/16 00:26:53;;;;;;;;;;;25.40;40.20;;;;;;1569227;74;735;-67
2022/05/16 00:28:54;;;;;;;;;;;25.30;40.40;;;;;;1565778;76;723;-68
2022/05/16 00:30:56;;;;;;;;;;;25.40;40.30;;;;;;1563606;76;718;-68
2022/05/16 00:32:58;;;;;;;;;;;25.40;40.30;;;;;;1564316;75;1938;-67
2022/05/16 00:35:00;;;;;;;;;;;25.30;40.30;;;;;;1563681;74;1154;-67
2022/05/16 00:37:02;;;;;;;;;;;25.40;40.30;;;;;;1564216;76;735;-68
2022/05/16 00:39:04;;;;;;;;;;;25.40;40.30;;;;;;1559503;76;763;-67
2022/05/16 00:41:06;;;;;;;;;;;25.30;40.20;;;;;;1567332;74;768;-68
2022/05/16 00:43:09;;;;;;;;;;;25.30;40.20;;;;;;1560091;76;768;-67
2022/05/16 00:45:12;;;;;;;;;;;25.30;40.30;;;;;;1566029;74;1184;-68
2022/05/16 00:47:14;;;;;;;;;;;25.30;40.20;;;;;;1565363;76;1523;-68
2022/05/16 00:49:18;;;;;;;;;;;25.30;40.30;;;;;;1566018;76;723;-68
2022/05/16 00:51:23;;;;;;;;;;;25.30;40.30;;;;;;1562684;76;1413;-68
2022/05/16 00:53:25;;;;;;;;;;;25.30;40.40;;;;;;1560519;76;762;-67
2022/05/16 00:55:28;;;;;;;;;;;25.30;40.30;;;;;;1566203;74;1139;-66
2022/05/16 00:57:35;;;;;;;;;;;25.30;40.30;;;;;;1565989;76;892;-67
2022/05/16 00:59:51;;;;;;;;;;;25.30;40.40;;;;;;1565303;76;1858;-68
2022/05/16 01:06:32;;;;;;;;;;;25.30;40.40;;;;;;1561432;74;1651;-68
2022/05/16 01:08:34;;;;;;;;;;;25.30;40.50;;;;;;1569867;74;694;-70
2022/05/16 01:10:36;;;;;;;;;;;25.20;40.40;;;;;;1565909;76;652;-70
2022/05/16 01:12:39;;;;;;;;;;;25.20;40.40;;;;;;1566019;76;1942;-70
2022/05/16 01:14:42;;;;;;;;;;;25.20;40.40;;;;;;1565710;75;1586;-70
2022/05/16 01:16:44;;;;;;;;;;;25.20;40.50;;;;;;1556584;76;1634;-70
2022/05/16 01:18:46;;;;;;;;;;;25.20;40.50;;;;;;1559362;76;675;-70
2022/05/16 01:20:56;;;;;;;;;;;25.20;40.50;;;;;;1563099;76;680;-70
2022/05/16 01:22:58;;;;;;;;;;;25.20;40.50;;;;;;1565291;74;710;-70
2022/05/16 01:25:01;;;;;;;;;;;25.20;40.50;;;;;;1564530;74;1113;-70
2022/05/16 01:27:03;;;;;;;;;;;25.20;40.60;;;;;;1566100;76;619;-69
2022/05/16 01:29:05;;;;;;;;;;;25.20;40.60;;;;;;1566067;76;1606;-69
2022/05/16 01:31:07;;;;;;;;;;;25.20;40.50;;;;;;1565985;76;738;-69
2022/05/16 01:33:09;;;;;;;;;;;25.20;40.60;;;;;;1565181;76;1924;-69
2022/05/16 01:35:11;;;;;;;;;;;25.20;40.50;;;;;;1567313;74;1202;-68
2022/05/16 01:37:13;;;;;;;;;;;25.20;40.60;;;;;;1559061;76;723;-70
2022/05/16 01:39:15;;;;;;;;;;;25.20;40.50;;;;;;1557478;76;735;-68
2022/05/16 01:41:17;;;;;;;;;;;25.20;40.60;;;;;;1560181;76;713;-68
2022/05/16 01:43:20;;;;;;;;;;;25.20;40.50;;;;;;1562870;76;1570;-68
2022/05/16 01:45:22;;;;;;;;;;;25.20;40.60;;;;;;1565871;74;1175;-68
2022/05/16 01:47:24;;;;;;;;;;;25.20;40.60;;;;;;1561422;76;734;-68
2022/05/16 01:49:26;;;;;;;;;;;25.20;40.50;;;;;;1564737;76;770;-67
2022/05/16 01:51:28;;;;;;;;;;;25.20;40.60;;;;;;1563617;74;746;-67
2022/05/16 01:53:29;;;;;;;;;;;25.20;40.60;;;;;;1561931;76;1942;-67
2022/05/16 01:55:31;;;;;;;;;;;25.20;40.60;;;;;;1572966;72;2992;-72
2022/05/16 01:57:33;;;;;;;;;;;25.20;40.50;;;;;;1592648;74;1464;-71
2022/05/16 01:59:35;;;;;;;;;;;25.20;40.60;;;;;;1589651;74;662;-68
2022/05/16 02:01:37;;;;;;;;;;;25.20;40.70;;;;;;1585473;73;681;-69
2022/05/16 02:03:43;;;;;;;;;;;25.20;40.60;;;;;;1585471;73;702;-69
2022/05/16 02:05:45;;;;;;;;;;;25.20;40.60;;;;;;1582862;74;1248;-68
2022/05/16 02:07:46;;;;;;;;;;;25.20;40.60;;;;;;1565238;75;709;-70
2022/05/16 02:09:48;;;;;;;;;;;25.20;40.60;;;;;;1566452;75;705;-71
2022/05/16 02:11:50;;;;;;;;;;;25.20;40.50;;;;;;1567640;73;1924;-67
2022/05/16 02:13:52;;;;;;;;;;;25.20;40.50;;;;;;1565988;75;651;-68
2022/05/16 02:15:54;;;;;;;;;;;25.30;40.50;;;;;;1566895;75;1177;-70
2022/05/16 02:17:56;;;;;;;;;;;25.30;40.50;;;;;;1568394;75;717;-67
2022/05/16 02:19:58;;;;;;;;;;;25.20;40.60;;;;;;1576690;73;689;-68
2022/05/16 02:26:46;;;;;;;;;;;25.20;40.50;;;;;;1572728;75;1647;-68
2022/05/16 02:28:43;;;;;;;;;;;25.20;40.50;;;;;;1563360;73;1551;-71
2022/05/16 02:30:45;;;;;;;;;;;25.20;40.50;;;;;;1590901;75;602;-71
2022/05/16 02:32:46;;;;;;;;;;;25.20;40.60;;;;;;1579225;73;1916;-68
2022/05/16 02:34:48;;;;;;;;;;;25.20;40.50;;;;;;1565586;73;614;-71
2022/05/16 02:36:52;;;;;;;;;;;25.20;40.50;;;;;;1578090;73;1171;-69
2022/05/16 02:38:54;;;;;;;;;;;25.20;40.60;;;;;;1586390;75;711;-71
2022/05/16 02:40:56;;;;;;;;;;;25.20;40.60;;;;;;1583149;75;1426;-69
2022/05/16 02:42:58;;;;;;;;;;;25.20;40.60;;;;;;1562504;75;649;-69
2022/05/16 02:44:59;;;;;;;;;;;25.20;40.70;;;;;;1572911;73;675;-70
2022/05/16 02:47:02;;;;;;;;;;;25.20;40.70;;;;;;1562682;75;1141;-70
2022/05/16 02:49:04;;;;;;;;;;;25.20;40.60;;;;;;1580190;75;655;-69
2022/05/16 02:51:06;;;;;;;;;;;25.20;40.70;;;;;;1571185;75;614;-72
2022/05/16 02:53:10;;;;;;;;;;;25.20;40.70;;;;;;1585136;75;1939;-67
2022/05/16 02:55:11;;;;;;;;;;;25.20;40.70;;;;;;1575119;73;2000;-65
2022/05/16 02:57:13;;;;;;;;;;;25.20;40.70;;;;;;1568939;75;812;-66
2022/05/16 02:59:15;;;;;;;;;;;25.20;40.70;;;;;;1575441;73;599;-66
2022/05/16 03:01:18;;;;;;;;;;;25.20;40.70;;;;;;1582275;73;628;-67
2022/05/16 03:03:19;;;;;;;;;;;25.20;40.70;;;;;;1577792;73;679;-68
2022/05/16 03:05:21;;;;;;;;;;;25.20;40.70;;;;;;1567369;75;1165;-67
2022/05/16 03:07:23;;;;;;;;;;;25.20;40.70;;;;;;1585885;75;1452;-67
2022/05/16 03:09:26;;;;;;;;;;;25.20;40.70;;;;;;1576837;75;590;-69
2022/05/16 03:11:28;;;;;;;;;;;25.20;40.60;;;;;;1588425;73;656;-69
2022/05/16 03:13:31;;;;;;;;;;;25.20;40.60;;;;;;1581644;75;1942;-69
2022/05/16 03:15:33;;;;;;;;;;;25.20;40.60;;;;;;1573383;73;1146;-67
2022/05/16 03:17:35;;;;;;;;;;;25.20;40.60;;;;;;1582915;75;689;-69
2022/05/16 03:19:37;;;;;;;;;;;25.30;40.60;;;;;;1578900;73;671;-71
2022/05/16 03:21:39;;;;;;;;;;;25.20;40.50;;;;;;1575167;75;1423;-70
2022/05/16 03:23:41;;;;;;;;;;;25.20;40.40;;;;;;1576524;75;683;-70
2022/05/16 03:25:43;;;;;;;;;;;25.20;40.50;;;;;;1577374;75;1120;-70
2022/05/16 03:27:45;;;;;;;;;;;25.10;40.50;;;;;;1575447;73;675;-69
2022/05/16 03:29:48;;;;;;;;;;;25.10;40.40;;;;;;1579582;75;665;-69
2022/05/16 03:31:50;;;;;;;;;;;25.10;40.40;;;;;;1591084;75;686;-69
2022/05/16 03:33:52;;;;;;;;;;;25.10;40.50;;;;;;1582192;73;1961;-70
2022/05/16 03:35:56;;;;;;;;;;;25.10;40.40;;;;;;1584400;75;1418;-70
2022/05/16 03:37:57;;;;;;;;;;;25.10;40.50;;;;;;1584705;75;682;-70
2022/05/16 03:42:19;;;;;;;;;;;25.10;40.50;;;;;;1582388;73;1661;-69
2022/05/16 03:44:21;;;;;;;;;;;25.00;40.50;;;;;;1590547;75;652;-69
2022/05/16 03:46:24;;;;;;;;;;;25.00;40.50;;;;;;1585608;75;1176;-65
2022/05/16 03:48:26;;;;;;;;;;;25.00;40.50;;;;;;1571450;75;643;-68
2022/05/16 03:50:27;;;;;;;;;;;25.00;40.50;;;;;;1570827;75;1509;-67
2022/05/16 03:52:29;;;;;;;;;;;25.00;40.50;;;;;;1569413;73;1914;-68
2022/05/16 03:54:31;;;;;;;;;;;25.00;40.50;;;;;;1581969;75;785;-67
2022/05/16 03:56:33;;;;;;;;;;;25.00;40.50;;;;;;1578767;75;1128;-67
2022/05/16 03:58:35;;;;;;;;;;;25.00;40.50;;;;;;1589747;75;728;-66
2022/05/16 04:00:37;;;;;;;;;;;25.00;40.50;;;;;;1569469;73;599;-65
2022/05/16 04:02:41;;;;;;;;;;;25.00;40.50;;;;;;1565156;73;766;-64
2022/05/16 04:04:43;;;;;;;;;;;24.90;40.50;;;;;;1569207;75;1690;-67
2022/05/16 04:06:45;;;;;;;;;;;25.00;40.50;;;;;;1563969;75;1150;-66
2022/05/16 04:08:47;;;;;;;;;;;25.00;40.60;;;;;;1564014;75;666;-70
2022/05/16 04:10:49;;;;;;;;;;;25.00;40.50;;;;;;1568963;73;651;-67
2022/05/16 04:12:51;;;;;;;;;;;25.00;40.50;;;;;;1575059;75;1944;-66
2022/05/16 04:14:53;;;;;;;;;;;25.00;40.40;;;;;;1573201;75;697;-69
2022/05/16 04:16:55;;;;;;;;;;;25.00;40.40;;;;;;1568862;75;1122;-67
2022/05/16 04:18:57;;;;;;;;;;;25.00;40.30;;;;;;1574917;75;1479;-63
2022/05/16 04:20:58;;;;;;;;;;;25.00;40.30;;;;;;1583353;73;652;-68
2022/05/16 04:23:01;;;;;;;;;;;25.00;40.30;;;;;;1575560;75;619;-66
2022/05/16 04:25:03;;;;;;;;;;;25.00;40.20;;;;;;1581427;75;653;-67
2022/05/16 04:27:05;;;;;;;;;;;25.00;40.30;;;;;;1569628;75;1082;-67
2022/05/16 04:29:06;;;;;;;;;;;25.00;40.20;;;;;;1575773;73;625;-67
2022/05/16 04:31:08;;;;;;;;;;;25.00;40.20;;;;;;1574362;75;625;-68
2022/05/16 04:33:10;;;;;;;;;;;25.00;40.20;;;;;;1563169;73;1940;-66
2022/05/16 04:35:12;;;;;;;;;;;25.00;40.20;;;;;;1571025;75;669;-68
2022/05/16 04:37:14;;;;;;;;;;;25.00;40.20;;;;;;1576928;75;643;-68
2022/05/16 04:39:16;;;;;;;;;;;25.00;40.20;;;;;;1578231;75;658;-69
2022/05/16 04:43:38;;;;;;;;;;;25.00;40.10;;;;;;1587528;75;575;-68
2022/05/16 04:45:40;;;;;;;;;;;24.90;40.10;;;;;;1577586;75;1640;-66
2022/05/16 04:47:42;;;;;;;;;;;25.00;40.10;;;;;;1572527;75;635;-68
2022/05/16 04:49:44;;;;;;;;;;;25.00;40.10;;;;;;1574618;75;644;-70
2022/05/16 04:51:46;;;;;;;;;;;25.00;40.10;;;;;;1570094;73;579;-71
2022/05/16 04:53:48;;;;;;;;;;;25.00;40.10;;;;;;1577731;75;1935;-67
2022/05/16 04:55:50;;;;;;;;;;;25.00;40.10;;;;;;1577708;75;1141;-69
2022/05/16 04:57:52;;;;;;;;;;;25.00;40.00;;;;;;1575489;73;705;-69
2022/05/16 04:59:54;;;;;;;;;;;25.00;40.00;;;;;;1574510;75;1464;-68
2022/05/16 05:01:55;;;;;;;;;;;25.00;40.20;;;;;;1578269;75;676;-71
2022/05/16 05:03:57;;;;;;;;;;;25.00;40.20;;;;;;1574850;73;656;-70
2022/05/16 05:05:59;;;;;;;;;;;25.00;40.20;;;;;;1574151;75;1162;-69
2022/05/16 05:08:01;;;;;;;;;;;25.00;40.20;;;;;;1565847;75;691;-69
2022/05/16 05:14:44;;;;;;;;;;;25.00;40.30;;;;;;1586255;75;1931;-70
2022/05/16 05:16:46;;;;;;;;;;;25.00;40.30;;;;;;1568989;75;1109;-71
2022/05/16 05:18:48;;;;;;;;;;;25.00;40.30;;;;;;1577806;74;678;-69
2022/05/16 05:20:50;;;;;;;;;;;25.00;40.20;;;;;;1586394;73;646;-70
2022/05/16 05:22:51;;;;;;;;;;;25.00;40.30;;;;;;1587333;75;651;-70
2022/05/16 05:24:53;;;;;;;;;;;25.00;40.30;;;;;;1587682;75;687;-71
2022/05/16 05:26:55;;;;;;;;;;;25.00;40.30;;;;;;1580746;75;1127;-72
2022/05/16 05:28:57;;;;;;;;;;;24.90;40.30;;;;;;1586351;73;1494;-69
2022/05/16 05:30:59;;;;;;;;;;;25.00;40.30;;;;;;1573364;75;646;-70
2022/05/16 05:33:01;;;;;;;;;;;25.00;40.20;;;;;;1570250;73;1914;-69
2022/05/16 05:35:03;;;;;;;;;;;25.00;40.30;;;;;;1579432;75;618;-69
2022/05/16 05:37:05;;;;;;;;;;;25.00;40.20;;;;;;1580854;75;1111;-68
2022/05/16 05:39:08;;;;;;;;;;;25.00;40.30;;;;;;1587597;75;678;-70
2022/05/16 05:41:10;;;;;;;;;;;25.00;40.20;;;;;;1578907;73;718;-70
2022/05/16 05:43:12;;;;;;;;;;;25.00;40.20;;;;;;1579329;75;1362;-68
2022/05/16 05:45:14;;;;;;;;;;;25.10;40.20;;;;;;1567036;73;1189;-68
2022/05/16 05:47:16;;;;;;;;;;;25.00;40.20;;;;;;1576225;75;580;-69
2022/05/16 05:49:19;;;;;;;;;;;25.10;40.20;;;;;;1567271;75;613;-67
2022/05/16 05:51:20;;;;;;;;;;;25.10;40.20;;;;;;1576825;73;684;-67
2022/05/16 05:53:22;;;;;;;;;;;25.00;40.20;;;;;;1575238;73;1919;-69
2022/05/16 05:55:24;;;;;;;;;;;25.10;40.40;;;;;;1572131;75;1141;-69
2022/05/16 05:57:26;;;;;;;;;;;25.10;40.30;;;;;;1575401;75;1461;-69
2022/05/16 05:59:28;;;;;;;;;;;25.10;40.30;;;;;;1579041;75;770;-69
2022/05/16 06:01:31;;;;;;;;;;;25.00;40.30;;;;;;1587643;75;705;-69
2022/05/16 06:03:33;;;;;;;;;;;25.00;40.30;;;;;;1565880;73;620;-68
2022/05/16 06:05:35;;;;;;;;;;;25.00;40.20;;;;;;1566875;75;1091;-72
2022/05/16 06:07:37;;;;;;;;;;;25.00;40.20;;;;;;1575020;75;744;-70
2022/05/16 06:09:39;;;;;;;;;;;24.90;40.20;;;;;;1587606;75;644;-70
2022/05/16 06:11:41;;;;;;;;;;;25.00;40.20;;;;;;1578103;73;1367;-71
2022/05/16 06:13:43;;;;;;;;;;;24.90;40.20;;;;;;1571556;75;1946;-70
2022/05/16 06:15:45;;;;;;;;;;;25.00;40.20;;;;;;1581334;73;1152;-71
2022/05/16 06:17:47;;;;;;;;;;;25.00;40.20;;;;;;1589772;75;697;-70
2022/05/16 06:19:48;;;;;;;;;;;25.00;40.20;;;;;;1573520;73;597;-70
2022/05/16 06:21:50;;;;;;;;;;;25.00;40.20;;;;;;1573277;75;617;-67
2022/05/16 06:23:52;;;;;;;;;;;24.90;40.20;;;;;;1581885;75;914;-69
2022/05/16 06:25:54;;;;;;;;;;;24.90;40.40;;;;;;1565030;74;1453;-69
2022/05/16 06:27:56;;;;;;;;;;;24.90;40.30;;;;;;1580325;73;662;-70
2022/05/16 06:29:58;;;;;;;;;;;24.90;40.40;;;;;;1582945;75;734;-70
2022/05/16 06:32:00;;;;;;;;;;;24.90;40.30;;;;;;1582817;73;686;-68
2022/05/16 06:34:02;;;;;;;;;;;24.90;40.40;;;;;;1575897;73;1907;-70
2022/05/16 06:36:05;;;;;;;;;;;24.90;40.40;;;;;;1577194;75;1139;-69
2022/05/16 06:38:07;;;;;;;;;;;24.80;40.40;;;;;;1578803;73;1580;-70
2022/05/16 06:40:09;;;;;;;;;;;24.80;40.40;;;;;;1573457;75;761;-70
2022/05/16 06:42:11;;;;;;;;;;;24.90;40.50;;;;;;1569168;75;702;-70
2022/05/16 06:44:14;;;;;;;;;;;24.80;40.40;;;;;;1574024;75;658;-68
2022/05/16 06:46:16;;;;;;;;;;;24.80;40.40;;;;;;1571213;73;1173;-70
2022/05/16 06:48:18;;;;;;;;;;;24.90;40.40;;;;;;1577521;73;682;-70
2022/05/16 06:50:20;;;;;;;;;;;24.90;40.50;;;;;;1571085;73;653;-69
2022/05/16 06:52:24;;;;;;;;;;;24.80;40.40;;;;;;1571044;75;1478;-69
2022/05/16 06:54:25;;;;;;;;;;;24.80;40.50;;;;;;1564622;75;1987;-68
2022/05/16 06:56:27;;;;;;;;;;;24.80;40.50;;;;;;1581427;73;1154;-70
2022/05/16 06:58:29;;;;;;;;;;;24.90;40.50;;;;;;1573590;73;715;-70
2022/05/16 07:00:31;;;;;;;;;;;24.90;40.60;;;;;;1571738;75;585;-70
2022/05/16 07:02:33;;;;;;;;;;;24.70;40.50;;;;;;1572952;73;632;-70
2022/05/16 07:04:37;;;;;;;;;;;24.80;40.50;;;;;;1583638;73;707;-72
2022/05/16 07:06:38;;;;;;;;;;;24.80;40.50;;;;;;1570010;75;1575;-69
2022/05/16 07:08:40;;;;;;;;;;;24.90;40.60;;;;;;1572448;75;660;-68
2022/05/16 07:10:42;;;;;;;;;;;24.80;40.50;;;;;;1578718;75;642;-69
2022/05/16 07:12:44;;;;;;;;;;;24.80;40.50;;;;;;1576438;73;802;-69
2022/05/16 07:14:47;;;;;;;;;;;24.80;40.50;;;;;;1575353;73;1941;-70
2022/05/16 07:16:49;;;;;;;;;;;24.80;40.60;;;;;;1570918;73;1144;-69
2022/05/16 07:18:51;;;;;;;;;;;24.80;40.50;;;;;;1573550;73;680;-70
2022/05/16 07:20:52;;;;;;;;;;;24.80;40.60;;;;;;1574719;73;1495;-68
2022/05/16 07:22:58;;;;;;;;;;;24.80;40.60;;;;;;1574034;75;723;-69
2022/05/16 07:24:59;;;;;;;;;;;24.70;40.60;;;;;;1567674;74;1643;-68
2022/05/16 07:29:20;;;;;;;;;;;24.80;40.60;;;;;;1563458;75;661;-69
2022/05/16 07:31:22;;;;;;;;;;;24.80;40.70;;;;;;1577648;73;652;-69
2022/05/16 07:33:24;;;;;;;;;;;24.80;40.70;;;;;;1574013;73;668;-68
2022/05/16 07:35:29;;;;;;;;;;;24.80;40.70;;;;;;1565037;75;1930;-69
2022/05/16 07:37:31;;;;;;;;;;;24.70;40.70;;;;;;1576120;75;1102;-68
2022/05/16 07:39:35;;;;;;;;;;;24.80;40.70;;;;;;1572348;75;573;-66
2022/05/16 07:41:38;;;;;;;;;;;24.70;40.70;;;;;;1575371;73;676;-70
2022/05/16 07:43:40;;;;;;;;;;;24.80;40.70;;;;;;1571275;75;675;-69
2022/05/16 07:45:42;;;;;;;;;;;24.80;40.80;;;;;;1578475;73;1148;-69
2022/05/16 07:47:43;;;;;;;;;;;24.70;40.70;;;;;;1573158;75;657;-69
2022/05/16 07:49:45;;;;;;;;;;;24.70;40.80;;;;;;1566919;75;1494;-69
2022/05/16 07:51:47;;;;;;;;;;;24.80;40.80;;;;;;1571043;73;699;-69
2022/05/16 07:53:49;;;;;;;;;;;24.80;40.80;;;;;;1572946;73;727;-68
2022/05/16 07:56:11;;;;;;;;;;;24.80;40.80;;;;;;1585869;75;1929;-67
2022/05/16 07:58:14;;;;;;;;;;;24.80;40.80;;;;;;1599940;74;616;-71
2022/05/16 08:00:16;;;;;;;;;;;24.80;40.80;;;;;;1604688;74;697;-72
2022/05/16 08:02:18;;;;;;;;;;;24.80;40.90;;;;;;1587758;74;671;-72
2022/05/16 08:04:20;;;;;;;;;;;24.80;40.90;;;;;;1593666;74;1617;-71
2022/05/16 08:06:24;;;;;;;;;;;24.70;40.80;;;;;;1580090;74;1224;-71
2022/05/16 08:10:46;;;;;;;;;;;24.80;40.90;;;;;;1561010;75;748;-71
2022/05/16 08:12:47;;;;;;;;;;;24.80;40.90;;;;;;1567571;75;719;-71
2022/05/16 08:14:49;;;;;;;;;;;24.80;41.00;;;;;;1567995;75;1935;-70
2022/05/16 08:16:51;;;;;;;;;;;24.80;41.00;;;;;;1561917;75;1614;-71
2022/05/16 08:18:53;;;;;;;;;;;24.80;41.00;;;;;;1564374;75;649;-70
2022/05/16 08:20:55;;;;;;;;;;;24.80;41.00;;;;;;1558999;74;719;-70
2022/05/16 08:22:57;;;;;;;;;;;24.80;41.00;;;;;;1556935;75;681;-71
2022/05/16 08:24:59;;;;;;;;;;;24.80;41.10;;;;;;1562692;75;673;-70
2022/05/16 08:27:02;;;;;;;;;;;24.80;41.10;;;;;;1562480;75;1125;-72
2022/05/16 08:29:04;;;;;;;;;;;24.80;41.10;;;;;;1564923;75;634;-71
2022/05/16 08:31:06;;;;;;;;;;;24.80;41.00;;;;;;1558143;75;1361;-71
2022/05/16 08:33:08;;;;;;;;;;;24.70;41.00;;;;;;1566710;75;671;-68
2022/05/16 08:35:10;;;;;;;;;;;24.70;41.00;;;;;;1559248;75;1929;-71
2022/05/16 08:41:53;;;;;;;;;;;24.70;41.10;;;;;;1560348;75;654;-72
2022/05/16 08:44:14;;;;;;;;;;;24.80;41.10;;;;;;1560298;74;1503;-71
2022/05/16 08:46:18;;;;;;;;;;;24.70;41.10;;;;;;1545194;75;1480;-71
2022/05/16 08:48:21;;;;;;;;;;;24.70;41.10;;;;;;1546844;75;777;-70
2022/05/16 08:50:25;;;;;;;;;;;24.70;41.10;;;;;;1550124;76;653;-71
2022/05/16 08:52:29;;;;;;;;;;;24.70;41.20;;;;;;1561527;74;930;-71
2022/05/16 08:54:45;;;;;;;;;;;24.70;41.20;;;;;;1559057;75;1934;-70
2022/05/16 08:56:47;;;;;;;;;;;24.60;41.20;;;;;;1556354;75;1200;-69
2022/05/16 08:58:52;;;;;;;;;;;24.60;41.20;;;;;;1557093;75;1249;-69
2022/05/16 09:01:01;;;;;;;;;;;24.60;41.20;;;;;;1559343;75;627;-70
2022/05/16 09:03:04;;;;;;;;;;;24.60;41.20;;;;;;1560383;75;683;-70
2022/05/16 09:05:08;;;;;;;;;;;24.70;41.30;;;;;;1561991;75;712;-69
2022/05/16 09:07:14;;;;;;;;;;;24.60;41.10;;;;;;1560458;75;1513;-68
2022/05/16 09:09:15;;;;;;;;;;;24.60;41.10;;;;;;1556546;75;1120;-73
2022/05/16 09:11:30;;;;;;;;;;;24.70;41.30;;;;;;1568096;75;685;-71
2022/05/16 09:13:34;;;;;;;;;;;24.60;41.10;;;;;;1566929;75;1413;-71
2022/05/16 09:15:43;;;;;;;;;;;24.60;41.10;;;;;;1560236;75;1935;-70
2022/05/16 09:17:49;;;;;;;;;;;24.60;41.10;;;;;;1558338;75;622;-71
2022/05/16 09:19:53;;;;;;;;;;;24.60;41.10;;;;;;1565343;75;1425;-71
2022/05/16 09:22:05;;;;;;;;;;;24.60;41.20;;;;;;1570220;75;1596;-70
2022/05/16 09:24:12;;;;;;;;;;;24.60;41.10;;;;;;1568375;75;648;-71
2022/05/16 09:26:15;;;;;;;;;;;24.50;41.20;;;;;;1556375;75;1152;-72
2022/05/16 09:28:35;;;;;;;;;;;24.50;41.10;;;;;;1562950;75;1512;-72
2022/05/16 09:30:37;;;;;;;;;;;24.50;41.20;;;;;;1555730;75;619;-71
2022/05/16 09:32:40;;;;;;;;;;;24.60;41.20;;;;;;1562373;75;718;-68
2022/05/16 09:34:41;;;;;;;;;;;24.50;41.20;;;;;;1555878;75;1947;-70
2022/05/16 09:36:45;;;;;;;;;;;24.60;41.10;;;;;;1578545;75;1121;-71
2022/05/16 09:38:47;;;;;;;;;;;24.50;41.20;;;;;;1571743;75;698;-69
2022/05/16 09:40:57;;;;;;;;;;;24.60;41.10;;;;;;1555293;75;725;-67
2022/05/16 09:42:59;;;;;;;;;;;24.50;41.10;;;;;;1556447;75;988;-72
2022/05/16 09:45:02;;;;;;;;;;;24.50;41.10;;;;;;1532557;76;1206;-70
2022/05/16 09:47:26;;;;;;;;;;;24.50;41.20;;;;;;1567789;75;1133;-70
2022/05/16 09:49:28;;;;;;;;;;;24.60;41.10;;;;;;1560769;75;547;-71
2022/05/16 09:51:30;;;;;;;;;;;24.50;41.20;;;;;;1557965;75;692;-71
2022/05/16 09:53:36;;;;;;;;;;;24.60;41.10;;;;;;1556813;75;648;-70
2022/05/16 09:55:58;;;;;;;;;;;24.60;41.10;;;;;;1558028;75;1904;-70
2022/05/16 09:58:01;;;;;;;;;;;24.60;41.10;;;;;;1554595;75;712;-70
2022/05/16 10:00:17;;;;;;;;;;;24.60;41.20;;;;;;1560814;75;660;-71
2022/05/16 10:02:29;;;;;;;;;;;24.60;41.20;;;;;;1558416;75;640;-69
2022/05/16 10:04:31;;;;;;;;;;;24.60;41.20;;;;;;1561049;75;681;-71
2022/05/16 10:06:35;;;;;;;;;;;24.60;41.20;;;;;;1550087;76;1153;-70
2022/05/16 10:08:41;;;;;;;;;;;24.60;41.30;;;;;;1526908;77;688;-71
2022/05/16 10:10:45;;;;;;;;;;;24.70;41.40;;;;;;1524711;76;1610;-72
2022/05/16 10:12:47;;;;;;;;;;;24.60;41.30;;;;;;1518334;76;1128;-69
2022/05/16 10:14:49;;;;;;;;;;;24.60;41.30;;;;;;1528845;77;1933;-72
2022/05/16 10:16:51;;;;;;;;;;;24.60;41.30;;;;;;1519709;77;1132;-70
2022/05/16 10:18:57;;;;;;;;;;;24.60;41.30;;;;;;1572034;74;645;-72
2022/05/16 10:21:03;;;;;;;;;;;24.60;41.30;;;;;;1564090;75;646;-73
2022/05/16 10:23:13;;;;;;;;;;;24.60;41.30;;;;;;1568178;75;1627;-70
2022/05/16 10:25:18;;;;;;;;;;;24.70;41.50;;;;;;1555590;75;912;-72
2022/05/16 10:27:28;;;;;;;;;;;24.60;41.40;;;;;;1559041;75;1131;-71
2022/05/16 10:29:31;;;;;;;;;;;24.70;41.50;;;;;;1558899;75;628;-72
2022/05/16 10:33:54;;;;;;;;;;;24.70;41.50;;;;;;1572018;75;1383;-70
2022/05/16 10:35:57;;;;;;;;;;;24.70;41.50;;;;;;1563016;75;1953;-73
2022/05/16 10:38:00;;;;;;;;;;;24.70;41.50;;;;;;1566250;75;1530;-72
2022/05/16 10:40:12;;;;;;;;;;;24.60;41.40;;;;;;1556445;75;640;-70
2022/05/16 10:42:16;;;;;;;;;;;24.60;41.40;;;;;;1573979;75;1008;-70
2022/05/16 10:44:25;;;;;;;;;;;24.70;41.60;;;;;;1568388;75;1410;-73
2022/05/16 10:46:29;;;;;;;;;;;24.80;41.60;;;;;;1563253;75;1395;-72
2022/05/16 10:48:39;;;;;;;;;;;24.70;41.60;;;;;;1563209;75;1052;-71
2022/05/16 10:50:50;;;;;;;;;;;24.80;41.60;;;;;;1563678;75;1134;-71
2022/05/16 10:52:59;;;;;;;;;;;24.70;41.60;;;;;;1566588;75;1512;-71
2022/05/16 10:55:01;;;;;;;;;;;24.70;41.70;;;;;;1566824;75;1936;-72
2022/05/16 10:57:07;;;;;;;;;;;24.70;41.70;;;;;;1559757;75;1173;-70
2022/05/16 10:59:11;;;;;;;;;;;25.00;41.80;;;;;;1558003;75;1706;-70
2022/05/16 11:01:14;;;;;;;;;;;24.70;41.70;;;;;;1557167;75;1383;-71
2022/05/16 11:03:33;;;;;;;;;;;24.70;41.80;;;;;;1562103;75;691;-71
2022/05/16 11:05:49;;;;;;;;;;;24.80;41.80;;;;;;1563874;75;1388;-71
2022/05/16 11:07:53;;;;;;;;;;;24.80;41.80;;;;;;1566506;75;888;-71
2022/05/16 11:09:59;;;;;;;;;;;24.80;41.80;;;;;;1566218;75;991;-70
2022/05/16 11:12:04;;;;;;;;;;;24.80;41.80;;;;;;1560070;75;627;-68
2022/05/16 11:14:17;;;;;;;;;;;24.80;41.90;;;;;;1560326;75;744;-70
2022/05/16 11:16:25;;;;;;;;;;;24.80;42.10;;;;;;1562374;75;1916;-71
2022/05/16 11:18:46;;;;;;;;;;;24.80;42.00;;;;;;1558560;75;709;-70
2022/05/16 11:20:49;;;;;;;;;;;24.90;42.20;;;;;;1560673;75;1521;-70
2022/05/16 11:22:53;;;;;;;;;;;24.90;42.20;;;;;;1558888;75;991;-65
2022/05/16 11:25:05;;;;;;;;;;;24.90;42.30;;;;;;1564386;75;1103;-69
2022/05/16 11:27:17;;;;;;;;;;;25.00;42.30;;;;;;1565264;75;1194;-69
2022/05/16 11:29:38;;;;;;;;;;;25.10;42.30;;;;;;1558557;75;1445;-70
2022/05/16 11:31:41;;;;;;;;;;;25.20;42.50;;;;;;1557625;75;687;-67
2022/05/16 11:33:47;;;;;;;;;;;25.20;42.70;;;;;;1567327;75;1467;-70
2022/05/16 11:35:50;;;;;;;;;;;25.20;42.90;;;;;;1555119;75;1908;-71
2022/05/16 11:37:53;;;;;;;;;;;25.30;43.10;;;;;;1563474;75;711;-70
2022/05/16 11:40:09;;;;;;;;;;;25.30;43.20;;;;;;1557985;75;707;-69
2022/05/16 11:42:12;;;;;;;;;;;25.30;43.40;;;;;;1571640;75;1107;-67
2022/05/16 11:44:20;;;;;;;;;;;25.30;43.60;;;;;;1561955;75;1038;-69
2022/05/16 11:46:41;;;;;;;;;;;25.30;43.80;;;;;;1564247;75;1137;-70
2022/05/16 11:49:02;;;;;;;;;;;25.30;43.80;;;;;;1566623;75;1467;-68
2022/05/16 11:51:18;;;;;;;;;;;25.40;44.00;;;;;;1558777;75;705;-69
2022/05/16 11:53:38;;;;;;;;;;;25.30;44.10;;;;;;1562179;75;669;-68
2022/05/16 12:02:33;;;;;;;;;;;25.30;44.10;;;;;;1573699;75;1401;-69
2022/05/16 12:04:36;;;;;;;;;;;25.30;44.20;;;;;;1556031;75;651;-69
2022/05/16 12:06:45;;;;;;;;;;;25.30;44.20;;;;;;1564594;75;1153;-68
2022/05/16 12:08:47;;;;;;;;;;;25.20;44.30;;;;;;1558805;75;656;-68
2022/05/16 12:11:00;;;;;;;;;;;25.20;44.30;;;;;;1566859;75;627;-67
2022/05/16 12:13:20;;;;;;;;;;;25.20;44.30;;;;;;1562674;75;660;-68
2022/05/16 12:15:27;;;;;;;;;;;25.30;44.20;;;;;;1566341;75;1919;-70
2022/05/16 12:17:30;;;;;;;;;;;25.20;44.20;;;;;;1561063;75;1535;-70
2022/05/16 12:19:38;;;;;;;;;;;25.30;44.20;;;;;;1569272;75;648;-69
2022/05/16 12:21:40;;;;;;;;;;;25.30;44.20;;;;;;1559893;75;671;-69
2022/05/16 12:23:49;;;;;;;;;;;25.30;44.20;;;;;;1555731;75;653;-70
2022/05/16 12:25:51;;;;;;;;;;;25.30;44.20;;;;;;1562920;75;1164;-69
2022/05/16 12:28:11;;;;;;;;;;;25.20;44.20;;;;;;1565446;75;626;-68
2022/05/16 12:30:17;;;;;;;;;;;25.30;44.20;;;;;;1566477;75;1492;-70
2022/05/16 12:32:33;;;;;;;;;;;25.30;44.20;;;;;;1563129;75;1041;-68
2022/05/16 12:34:37;;;;;;;;;;;25.20;44.20;;;;;;1565425;75;572;-69
2022/05/16 12:36:39;;;;;;;;;;;25.30;44.20;;;;;;1562483;75;2140;-68
2022/05/16 12:38:41;;;;;;;;;;;25.20;44.20;;;;;;1565658;75;696;-68
2022/05/16 12:40:47;;;;;;;;;;;25.20;44.20;;;;;;1558849;75;646;-69
2022/05/16 12:42:51;;;;;;;;;;;25.30;44.10;;;;;;1559699;75;1531;-70
2022/05/16 12:44:56;;;;;;;;;;;25.30;44.10;;;;;;1555037;75;1520;-68
2022/05/16 12:47:06;;;;;;;;;;;25.30;44.10;;;;;;1559076;75;1173;-69
2022/05/16 12:49:26;;;;;;;;;;;25.20;44.00;;;;;;1566909;75;760;-69
2022/05/16 12:51:42;;;;;;;;;;;25.20;44.00;;;;;;1569337;75;666;-70
2022/05/16 12:53:51;;;;;;;;;;;25.30;43.90;;;;;;1567549;75;627;-70